Time;durP1;ratioP1;P1;durP2;ratioP2;P2;SDS_P1;SDS_P2;PMS_P1;PMS_P2;Temp;Humidity;BMP_temperature;BMP_pressure;BME280_temperature;BME280_humidity;BME280_pressure;Samples;Min_cycle;Max_cycle;Signal;HPM_P1;HPM_P2
2021/11/20 00:00:03;;;;;;;13.55;7.75;;;;;;;;;;5051325;28;20136;-73
2021/11/20 00:02:31;;;;;;;11.90;8.18;;;;;;;;;;5063396;28;20052;-73
2021/11/20 00:04:59;;;;;;;12.35;8.32;;;;;;;;;;5050588;28;20048;-72
2021/11/20 00:07:25;;;;;;;11.50;7.53;;;;;;;;;;5045204;28;20056;-74
2021/11/20 00:09:53;;;;;;;14.18;8.40;;;;;;;;;;5046876;28;20257;-74
2021/11/20 00:12:22;;;;;;;12.95;8.35;;;;;;;;;;5059141;28;20052;-72
2021/11/20 00:14:48;;;;;;;10.93;8.57;;;;;;;;;;5057415;28;20136;-72
2021/11/20 00:17:15;;;;;;;11.73;8.30;;;;;;;;;;5069159;28;20056;-72
2021/11/20 00:19:42;;;;;;;15.02;8.52;;;;;;;;;;5063048;28;20052;-73
2021/11/20 00:22:14;;;;;;;13.20;8.43;;;;;;;;;;5069497;28;20404;-72
2021/11/20 00:25:00;;;;;;;15.68;8.52;;;;;;;;;;5056862;28;20052;-73
2021/11/20 00:27:32;;;;;;;13.25;8.20;;;;;;;;;;5069413;28;20048;-73
2021/11/20 00:30:11;;;;;;;12.65;8.00;;;;;;;;;;5063373;28;20059;-73
2021/11/20 00:32:50;;;;;;;11.15;8.82;;;;;;;;;;5067984;28;20464;-73
2021/11/20 00:35:18;;;;;;;11.85;8.73;;;;;;;;;;5049275;28;20057;-73
2021/11/20 00:37:44;;;;;;;11.90;8.77;;;;;;;;;;5044765;28;20059;-73
2021/11/20 00:40:16;;;;;;;15.23;9.88;;;;;;;;;;5044600;28;20293;-73
2021/11/20 00:42:43;;;;;;;16.83;9.88;;;;;;;;;;5043067;28;20506;-73
2021/11/20 00:45:10;;;;;;;16.40;11.00;;;;;;;;;;5061227;28;20040;-72
2021/11/20 00:47:36;;;;;;;17.38;10.55;;;;;;;;;;5049848;28;20519;-73
2021/11/20 00:50:03;;;;;;;13.63;9.65;;;;;;;;;;5050806;28;20135;-73
2021/11/20 00:52:30;;;;;;;16.05;10.38;;;;;;;;;;5032299;28;20044;-73
2021/11/20 00:54:56;;;;;;;14.55;10.25;;;;;;;;;;5049324;28;20063;-73
2021/11/20 00:57:22;;;;;;;17.00;10.75;;;;;;;;;;5048188;28;20045;-73
2021/11/20 00:59:49;;;;;;;16.80;10.48;;;;;;;;;;5042094;28;20064;-73
2021/11/20 01:02:15;;;;;;;16.35;10.70;;;;;;;;;;5064475;28;20052;-73
2021/11/20 01:04:42;;;;;;;18.23;10.50;;;;;;;;;;5058199;28;20654;-73
2021/11/20 01:07:09;;;;;;;17.70;10.63;;;;;;;;;;5067849;28;20052;-73
2021/11/20 01:09:38;;;;;;;15.45;10.43;;;;;;;;;;5060971;28;20049;-73
2021/11/20 01:12:10;;;;;;;16.75;10.98;;;;;;;;;;5068383;28;20087;-72
2021/11/20 01:14:37;;;;;;;17.58;11.40;;;;;;;;;;5068047;28;20604;-73
2021/11/20 01:17:04;;;;;;;15.57;11.05;;;;;;;;;;5041452;28;20052;-74
2021/11/20 01:19:31;;;;;;;14.40;8.83;;;;;;;;;;5044352;28;20049;-73
2021/11/20 01:21:59;;;;;;;17.90;11.20;;;;;;;;;;5061296;28;20049;-73
2021/11/20 01:24:26;;;;;;;;;;;;;;;;;;5068955;28;20155;-73
2021/11/20 01:26:53;;;;;;;19.05;11.55;;;;;;;;;;5043104;28;19930;-73
2021/11/20 01:29:20;;;;;;;16.85;11.57;;;;;;;;;;5067397;28;20075;-73
2021/11/20 01:31:47;;;;;;;17.30;12.02;;;;;;;;;;5056611;28;20048;-72
2021/11/20 01:34:15;;;;;;;15.73;12.00;;;;;;;;;;5062837;28;20059;-72
2021/11/20 01:36:42;;;;;;;17.65;12.00;;;;;;;;;;5067370;28;20044;-73
2021/11/20 01:39:10;;;;;;;18.05;12.23;;;;;;;;;;5061550;28;20115;-73
2021/11/20 01:41:37;;;;;;;17.45;10.80;;;;;;;;;;5061443;28;20045;-73
2021/11/20 01:44:12;;;;;;;20.75;12.10;;;;;;;;;;5024717;28;20059;-73
2021/11/20 01:46:41;;;;;;;16.40;10.80;;;;;;;;;;5040008;28;20041;-73
2021/11/20 01:49:18;;;;;;;17.40;11.98;;;;;;;;;;5040116;28;20136;-72
2021/11/20 01:51:47;;;;;;;17.40;11.02;;;;;;;;;;5056755;28;20059;-73
2021/11/20 01:54:32;;;;;;;18.15;11.35;;;;;;;;;;5067497;28;20057;-72
2021/11/20 01:57:02;;;;;;;16.17;11.43;;;;;;;;;;5067278;28;20049;-73
2021/11/20 01:59:44;;;;;;;20.05;11.70;;;;;;;;;;5045521;28;20083;-72
2021/11/20 02:02:14;;;;;;;19.05;12.10;;;;;;;;;;5037938;28;20052;-72
2021/11/20 02:04:41;;;;;;;16.35;11.15;;;;;;;;;;5067215;28;20056;-72
2021/11/20 02:07:13;;;;;;;17.75;12.52;;;;;;;;;;5060966;28;20052;-72
2021/11/20 02:09:51;;;;;;;16.92;12.00;;;;;;;;;;5067501;28;20048;-72
2021/11/20 02:12:20;;;;;;;17.30;12.15;;;;;;;;;;5051759;28;20053;-73
2021/11/20 02:14:47;;;;;;;17.60;12.25;;;;;;;;;;5060546;28;20049;-73
2021/11/20 02:17:19;;;;;;;17.42;12.23;;;;;;;;;;5060276;28;20056;-73
2021/11/20 02:19:47;;;;;;;16.25;11.65;;;;;;;;;;5067266;28;20512;-73
2021/11/20 02:22:14;;;;;;;;;;;;;;;;;;5067735;28;20055;-74
2021/11/20 02:24:40;;;;;;;16.75;11.10;;;;;;;;;;5060369;28;19944;-74
2021/11/20 02:27:08;;;;;;;18.90;11.68;;;;;;;;;;5062706;28;20044;-73
2021/11/20 02:29:47;;;;;;;18.70;11.77;;;;;;;;;;5055380;28;20517;-73
2021/11/20 02:32:21;;;;;;;20.42;13.05;;;;;;;;;;5066531;28;20057;-73
2021/11/20 02:34:50;;;;;;;17.73;12.18;;;;;;;;;;5060663;28;20056;-73
2021/11/20 02:37:17;;;;;;;17.83;12.43;;;;;;;;;;5069449;28;20056;-74
2021/11/20 02:39:43;;;;;;;15.95;11.43;;;;;;;;;;5063623;28;20049;-73
2021/11/20 02:42:12;;;;;;;16.45;11.82;;;;;;;;;;5063793;28;20053;-73
2021/11/20 02:44:39;;;;;;;17.10;11.77;;;;;;;;;;5050675;28;20410;-74
2021/11/20 02:47:17;;;;;;;20.67;12.40;;;;;;;;;;5063338;28;20053;-74
2021/11/20 02:49:43;;;;;;;21.10;13.05;;;;;;;;;;5070468;28;20067;-74
2021/11/20 02:52:11;;;;;;;16.95;12.10;;;;;;;;;;5044564;28;20056;-74
2021/11/20 02:54:38;;;;;;;18.55;12.23;;;;;;;;;;5061789;28;20045;-74
2021/11/20 02:57:09;;;;;;;17.70;12.50;;;;;;;;;;5057603;28;20062;-74
2021/11/20 02:59:35;;;;;;;24.77;13.60;;;;;;;;;;5052493;28;20044;-74
2021/11/20 03:02:02;;;;;;;19.00;13.35;;;;;;;;;;5071048;28;20052;-74
2021/11/20 03:04:30;;;;;;;22.92;14.48;;;;;;;;;;5064040;28;20083;-73
2021/11/20 03:06:58;;;;;;;19.65;12.95;;;;;;;;;;5070649;28;20048;-72
2021/11/20 03:09:26;;;;;;;20.63;13.48;;;;;;;;;;5062757;28;20250;-73
2021/11/20 03:11:53;;;;;;;19.85;14.05;;;;;;;;;;5070149;28;20048;-73
2021/11/20 03:14:20;;;;;;;23.20;14.30;;;;;;;;;;5063568;28;20052;-73
2021/11/20 03:16:46;;;;;;;19.90;13.20;;;;;;;;;;5069901;28;20048;-73
2021/11/20 03:19:13;;;;;;;18.63;12.90;;;;;;;;;;5060708;28;20060;-72
2021/11/20 03:21:41;;;;;;;22.50;13.30;;;;;;;;;;5063237;28;20055;-72
2021/11/20 03:24:08;;;;;;;19.45;13.23;;;;;;;;;;5052857;28;20127;-73
2021/11/20 03:26:35;;;;;;;21.38;14.27;;;;;;;;;;5063743;28;20059;-73
2021/11/20 03:29:02;;;;;;;21.20;13.07;;;;;;;;;;5070231;28;20052;-73
2021/11/20 03:31:28;;;;;;;19.35;13.68;;;;;;;;;;5043016;28;20053;-73
2021/11/20 03:33:55;;;;;;;20.90;14.13;;;;;;;;;;5024858;28;20656;-73
2021/11/20 03:36:21;;;;;;;20.65;13.57;;;;;;;;;;5042550;28;20056;-73
2021/11/20 03:38:47;;;;;;;21.75;14.50;;;;;;;;;;5031448;28;20064;-73
2021/11/20 03:41:14;;;;;;;21.23;14.57;;;;;;;;;;5048405;28;20069;-73
2021/11/20 03:43:41;;;;;;;21.05;15.57;;;;;;;;;;5042248;28;20383;-73
2021/11/20 03:46:07;;;;;;;24.10;15.25;;;;;;;;;;5028406;28;20056;-73
2021/11/20 03:48:34;;;;;;;21.20;14.57;;;;;;;;;;5038843;28;20060;-73
2021/11/20 03:51:01;;;;;;;20.92;13.77;;;;;;;;;;5047334;28;20406;-72
2021/11/20 03:53:27;;;;;;;26.20;15.32;;;;;;;;;;5043693;28;20084;-72
2021/11/20 03:55:54;;;;;;;21.45;14.88;;;;;;;;;;5064832;28;20516;-72
2021/11/20 03:58:21;;;;;;;22.58;15.88;;;;;;;;;;5069443;28;20060;-72
2021/11/20 04:00:49;;;;;;;22.83;16.30;;;;;;;;;;5057840;28;20048;-73
2021/11/20 04:03:20;;;;;;;21.58;14.95;;;;;;;;;;5065883;28;20048;-73
2021/11/20 04:05:50;;;;;;;22.85;16.63;;;;;;;;;;5063047;28;20059;-73
2021/11/20 04:08:17;;;;;;;23.67;16.48;;;;;;;;;;5069840;28;20106;-72
2021/11/20 04:10:44;;;;;;;23.55;15.93;;;;;;;;;;5062244;28;20055;-72
2021/11/20 04:13:10;;;;;;;23.52;16.15;;;;;;;;;;5065212;28;20048;-72
2021/11/20 04:15:37;;;;;;;27.75;17.95;;;;;;;;;;5064363;28;20795;-73
2021/11/20 04:18:03;;;;;;;24.33;16.85;;;;;;;;;;5045347;28;20060;-73
2021/11/20 04:20:30;;;;;;;25.00;17.30;;;;;;;;;;5069494;28;20071;-73
2021/11/20 04:22:56;;;;;;;24.75;16.15;;;;;;;;;;5061708;28;20143;-73
2021/11/20 04:25:24;;;;;;;28.27;17.67;;;;;;;;;;5068773;28;20056;-73
2021/11/20 04:27:51;;;;;;;24.35;16.85;;;;;;;;;;5039040;28;20052;-73
2021/11/20 04:30:18;;;;;;;24.40;17.73;;;;;;;;;;5063981;28;20497;-73
2021/11/20 04:32:45;;;;;;;26.67;17.13;;;;;;;;;;5048518;28;20052;-73
2021/11/20 04:35:13;;;;;;;28.88;17.33;;;;;;;;;;5066053;28;20048;-73
2021/11/20 04:37:40;;;;;;;27.35;18.00;;;;;;;;;;5069205;28;20191;-73
2021/11/20 04:40:07;;;;;;;28.65;18.30;;;;;;;;;;5044325;28;20060;-73
2021/11/20 04:42:33;;;;;;;24.88;16.83;;;;;;;;;;5061484;28;20052;-73
2021/11/20 04:44:59;;;;;;;29.10;18.67;;;;;;;;;;5059870;28;20048;-73
2021/11/20 04:47:26;;;;;;;28.25;18.75;;;;;;;;;;5067732;28;20079;-73
2021/11/20 04:49:52;;;;;;;30.63;19.10;;;;;;;;;;5041483;28;20544;-73
2021/11/20 04:52:18;;;;;;;27.52;18.02;;;;;;;;;;5046100;28;20045;-73
2021/11/20 04:54:45;;;;;;;26.98;18.05;;;;;;;;;;5033807;28;20725;-73
2021/11/20 04:57:27;;;;;;;28.50;18.25;;;;;;;;;;5041340;28;20052;-73
2021/11/20 04:59:53;;;;;;;28.30;18.75;;;;;;;;;;5067119;28;20070;-73
2021/11/20 05:02:19;;;;;;;29.90;19.45;;;;;;;;;;5061570;28;20584;-73
2021/11/20 05:04:46;;;;;;;29.55;19.02;;;;;;;;;;5068157;28;20133;-73
2021/11/20 05:07:12;;;;;;;33.75;20.73;;;;;;;;;;5061247;28;20153;-73
2021/11/20 05:09:39;;;;;;;30.95;19.63;;;;;;;;;;5045850;28;20059;-72
2021/11/20 05:12:07;;;;;;;35.65;19.80;;;;;;;;;;5061462;28;20053;-72
2021/11/20 05:14:33;;;;;;;;;;;;;;;;;;5061195;28;20059;-73
2021/11/20 05:17:00;;;;;;;30.67;18.58;;;;;;;;;;5068068;28;19924;-72
2021/11/20 05:19:26;;;;;;;32.90;20.60;;;;;;;;;;5061922;28;20497;-72
2021/11/20 05:21:52;;;;;;;34.90;21.73;;;;;;;;;;5066879;28;20063;-71
2021/11/20 05:24:19;;;;;;;33.40;19.65;;;;;;;;;;5055297;28;20421;-72
2021/11/20 05:26:45;;;;;;;32.58;20.90;;;;;;;;;;5066561;28;20052;-72
2021/11/20 05:29:25;;;;;;;35.25;22.48;;;;;;;;;;5066050;28;20044;-74
2021/11/20 05:31:51;;;;;;;40.20;22.20;;;;;;;;;;5052220;28;20490;-72
2021/11/20 05:34:18;;;;;;;37.70;21.30;;;;;;;;;;5047895;28;20069;-72
2021/11/20 05:36:44;;;;;;;36.38;22.17;;;;;;;;;;5036395;28;20076;-72
2021/11/20 05:39:11;;;;;;;39.58;23.38;;;;;;;;;;5043066;28;20060;-72
2021/11/20 05:41:38;;;;;;;38.75;22.92;;;;;;;;;;5040361;28;20540;-72
2021/11/20 05:44:04;;;;;;;38.90;22.90;;;;;;;;;;5047959;28;20051;-72
2021/11/20 05:46:30;;;;;;;38.15;22.77;;;;;;;;;;5041397;28;20040;-72
2021/11/20 05:48:57;;;;;;;41.13;22.90;;;;;;;;;;5050184;28;20070;-72
2021/11/20 05:51:24;;;;;;;44.80;25.00;;;;;;;;;;5042356;28;20048;-71
2021/11/20 05:53:51;;;;;;;39.28;23.02;;;;;;;;;;5038620;28;20041;-72
2021/11/20 05:56:18;;;;;;;40.08;22.08;;;;;;;;;;5048731;28;20053;-71
2021/11/20 05:59:04;;;;;;;41.83;23.40;;;;;;;;;;5041345;28;20060;-71
2021/11/20 06:01:31;;;;;;;38.25;22.92;;;;;;;;;;5057219;28;20049;-71
2021/11/20 06:03:57;;;;;;;39.63;22.95;;;;;;;;;;5059905;28;20765;-71
2021/11/20 06:06:23;;;;;;;39.72;23.05;;;;;;;;;;5049600;28;20048;-71
2021/11/20 06:08:49;;;;;;;41.55;23.38;;;;;;;;;;5023075;28;20053;-72
2021/11/20 06:11:18;;;;;;;42.25;22.35;;;;;;;;;;5049008;28;20049;-71
2021/11/20 06:13:45;;;;;;;39.17;21.73;;;;;;;;;;5051721;28;20474;-72
2021/11/20 06:16:11;;;;;;;42.03;22.90;;;;;;;;;;5045298;28;20052;-71
2021/11/20 06:18:37;;;;;;;39.25;21.52;;;;;;;;;;5047611;28;20264;-71
2021/11/20 06:21:04;;;;;;;37.40;20.70;;;;;;;;;;5040337;28;20053;-72
2021/11/20 06:23:32;;;;;;;41.97;22.23;;;;;;;;;;5051373;28;20106;-71
2021/11/20 06:25:58;;;;;;;40.10;22.30;;;;;;;;;;5029648;28;20053;-72
2021/11/20 06:28:25;;;;;;;36.35;20.70;;;;;;;;;;5049916;28;20041;-71
2021/11/20 06:30:52;;;;;;;40.53;21.95;;;;;;;;;;5050476;28;20049;-71
2021/11/20 06:33:18;;;;;;;41.88;22.35;;;;;;;;;;5039703;28;20088;-71
2021/11/20 06:35:53;;;;;;;37.70;20.85;;;;;;;;;;5040657;28;20133;-72
2021/11/20 06:38:20;;;;;;;35.78;20.23;;;;;;;;;;5052187;28;20048;-72
2021/11/20 06:40:47;;;;;;;37.72;20.77;;;;;;;;;;5054732;28;20045;-72
2021/11/20 06:43:15;;;;;;;35.47;19.67;;;;;;;;;;5052792;28;20052;-72
2021/11/20 06:45:44;;;;;;;35.33;20.17;;;;;;;;;;5056022;28;20727;-72
2021/11/20 06:48:10;;;;;;;35.55;19.48;;;;;;;;;;5058758;28;20432;-72
2021/11/20 06:50:37;;;;;;;32.83;18.90;;;;;;;;;;5051295;28;20259;-72
2021/11/20 06:53:06;;;;;;;37.55;18.75;;;;;;;;;;5059422;28;20055;-71
2021/11/20 06:55:34;;;;;;;37.58;20.38;;;;;;;;;;5052203;28;20048;-71
2021/11/20 07:00:45;;;;;;;39.58;20.13;;;;;;;;;;5051933;28;19924;-71
2021/11/20 07:03:13;;;;;;;34.58;18.48;;;;;;;;;;5058973;28;20137;-71
2021/11/20 07:05:42;;;;;;;34.47;19.13;;;;;;;;;;5051583;28;20056;-71
2021/11/20 07:08:09;;;;;;;35.40;18.85;;;;;;;;;;5059243;28;20413;-71
2021/11/20 07:10:35;;;;;;;36.38;19.75;;;;;;;;;;5053681;28;20045;-71
2021/11/20 07:13:02;;;;;;;40.90;21.23;;;;;;;;;;5045832;28;20056;-71
2021/11/20 07:15:28;;;;;;;38.08;19.45;;;;;;;;;;5058901;28;20071;-71
2021/11/20 07:17:55;;;;;;;39.85;20.70;;;;;;;;;;5050402;28;20052;-71
2021/11/20 07:20:23;;;;;;;38.38;20.13;;;;;;;;;;5059527;28;20063;-71
2021/11/20 07:22:49;;;;;;;39.35;20.60;;;;;;;;;;5050963;28;20044;-71
2021/11/20 07:25:17;;;;;;;41.50;21.27;;;;;;;;;;5053543;28;20052;-71
2021/11/20 07:27:43;;;;;;;41.97;21.40;;;;;;;;;;5055611;28;20058;-71
2021/11/20 07:30:12;;;;;;;41.40;20.17;;;;;;;;;;5053658;28;20041;-71
2021/11/20 07:32:38;;;;;;;41.33;21.25;;;;;;;;;;5059151;28;20131;-72
2021/11/20 07:35:06;;;;;;;44.92;21.80;;;;;;;;;;5052008;28;20067;-71
2021/11/20 07:37:32;;;;;;;43.60;21.88;;;;;;;;;;5053858;28;20056;-71
2021/11/20 07:39:59;;;;;;;44.20;23.58;;;;;;;;;;5036799;28;20464;-71
2021/11/20 07:42:25;;;;;;;42.03;21.63;;;;;;;;;;5056286;28;20056;-71
2021/11/20 07:44:58;;;;;;;39.90;21.17;;;;;;;;;;5057626;28;20048;-71
2021/11/20 07:47:25;;;;;;;42.22;22.77;;;;;;;;;;5049225;28;20810;-71
2021/11/20 07:49:51;;;;;;;44.13;23.73;;;;;;;;;;5057031;28;20063;-72
2021/11/20 07:52:17;;;;;;;44.05;23.92;;;;;;;;;;5042724;28;20048;-71
2021/11/20 07:54:44;;;;;;;44.58;24.08;;;;;;;;;;5049582;28;20048;-72
2021/11/20 07:57:10;;;;;;;43.55;23.90;;;;;;;;;;5045806;28;20052;-72
2021/11/20 07:59:39;;;;;;;45.72;24.20;;;;;;;;;;5054104;28;20056;-71
2021/11/20 08:02:05;;;;;;;;;;;;;;;;;;5053624;28;20068;-71
2021/11/20 08:04:35;;;;;;;45.22;24.38;;;;;;;;;;5049320;28;19928;-71
2021/11/20 08:07:03;;;;;;;51.47;26.67;;;;;;;;;;5049756;28;20048;-71
2021/11/20 08:09:29;;;;;;;50.08;27.38;;;;;;;;;;5049436;28;20071;-71
2021/11/20 08:11:56;;;;;;;49.63;28.52;;;;;;;;;;5040108;28;20504;-71
2021/11/20 08:14:23;;;;;;;46.72;26.88;;;;;;;;;;5033201;28;20059;-71
2021/11/20 08:16:49;;;;;;;51.40;29.55;;;;;;;;;;5057406;28;20051;-71
2021/11/20 08:19:17;;;;;;;56.08;30.48;;;;;;;;;;5053476;28;20049;-71
2021/11/20 08:21:43;;;;;;;55.85;31.08;;;;;;;;;;5044565;28;20052;-71
2021/11/20 08:24:10;;;;;;;55.22;29.75;;;;;;;;;;5057632;28;20053;-71
2021/11/20 08:26:37;;;;;;;55.53;31.23;;;;;;;;;;5050025;28;20067;-71
2021/11/20 08:29:08;;;;;;;55.42;30.55;;;;;;;;;;5057244;28;20049;-71
2021/11/20 08:31:36;;;;;;;54.22;29.63;;;;;;;;;;5048437;28;20051;-71
2021/11/20 08:34:03;;;;;;;56.67;33.60;;;;;;;;;;5031123;28;20060;-72
2021/11/20 08:36:29;;;;;;;57.40;33.00;;;;;;;;;;5022039;28;20063;-71
2021/11/20 08:38:55;;;;;;;59.85;34.47;;;;;;;;;;5048480;28;20064;-71
2021/11/20 08:41:22;;;;;;;55.50;32.05;;;;;;;;;;5055914;28;20052;-71
2021/11/20 08:43:48;;;;;;;54.80;31.38;;;;;;;;;;5033344;28;20059;-71
2021/11/20 08:46:14;;;;;;;54.05;31.35;;;;;;;;;;5054970;28;20048;-71
2021/11/20 08:48:41;;;;;;;53.95;31.92;;;;;;;;;;5044305;28;20049;-71
2021/11/20 08:51:12;;;;;;;58.10;34.10;;;;;;;;;;5051221;28;20048;-72
2021/11/20 08:53:39;;;;;;;58.63;32.58;;;;;;;;;;5053764;28;20051;-71
2021/11/20 08:56:05;;;;;;;55.58;32.65;;;;;;;;;;5054017;28;20585;-71
2021/11/20 08:58:32;;;;;;;57.10;32.60;;;;;;;;;;5058708;28;20048;-71
2021/11/20 09:01:00;;;;;;;59.58;33.22;;;;;;;;;;5047799;28;20501;-71
2021/11/20 09:03:32;;;;;;;56.25;32.15;;;;;;;;;;5050887;28;20418;-72
2021/11/20 09:06:21;;;;;;;55.13;31.45;;;;;;;;;;5048315;28;20504;-71
2021/11/20 09:08:59;;;;;;;55.42;31.20;;;;;;;;;;5056634;28;20045;-71
2021/11/20 09:11:26;;;;;;;58.65;33.65;;;;;;;;;;5049238;28;21212;-71
2021/11/20 09:13:56;;;;;;;56.78;32.17;;;;;;;;;;5038791;28;20468;-71
2021/11/20 09:16:25;;;;;;;61.42;34.80;;;;;;;;;;5051150;28;20059;-71
2021/11/20 09:18:52;;;;;;;51.55;30.70;;;;;;;;;;5042411;28;20257;-71
2021/11/20 09:21:19;;;;;;;56.80;32.08;;;;;;;;;;5056368;28;20055;-71
2021/11/20 09:23:46;;;;;;;56.92;33.28;;;;;;;;;;5047428;28;20048;-71
2021/11/20 09:26:13;;;;;;;57.78;32.85;;;;;;;;;;5056321;28;20047;-71
2021/11/20 09:28:57;;;;;;;58.60;33.05;;;;;;;;;;5046696;28;20502;-71
2021/11/20 09:31:25;;;;;;;57.90;32.25;;;;;;;;;;5051615;28;20056;-71
2021/11/20 09:33:51;;;;;;;52.60;31.00;;;;;;;;;;5028996;28;20056;-72
2021/11/20 09:36:20;;;;;;;55.35;32.13;;;;;;;;;;5056458;28;20056;-71
2021/11/20 09:38:46;;;;;;;53.83;31.67;;;;;;;;;;5055812;28;20048;-71
2021/11/20 09:41:14;;;;;;;56.10;32.50;;;;;;;;;;5048413;28;20094;-71
2021/11/20 09:43:50;;;;;;;55.47;30.90;;;;;;;;;;5049978;28;20057;-71
2021/11/20 09:46:27;;;;;;;50.10;30.00;;;;;;;;;;5043714;28;20443;-71
2021/11/20 09:48:58;;;;;;;53.17;32.10;;;;;;;;;;5055829;28;20380;-72
2021/11/20 09:51:31;;;;;;;48.97;29.52;;;;;;;;;;5045650;28;20048;-71
2021/11/20 09:54:00;;;;;;;55.80;31.70;;;;;;;;;;5054881;28;20366;-71
2021/11/20 09:56:28;;;;;;;52.75;30.30;;;;;;;;;;5055565;28;20351;-71
2021/11/20 09:59:03;;;;;;;52.83;31.52;;;;;;;;;;5050345;28;20079;-71
2021/11/20 10:01:32;;;;;;;52.80;31.83;;;;;;;;;;5056201;28;20143;-71
2021/11/20 10:04:02;;;;;;;51.42;31.08;;;;;;;;;;5048248;28;20059;-71
2021/11/20 10:06:30;;;;;;;54.33;30.63;;;;;;;;;;5052895;28;20041;-71
2021/11/20 10:09:05;;;;;;;52.40;30.50;;;;;;;;;;5041463;28;20255;-71
2021/11/20 10:11:55;;;;;;;50.63;30.38;;;;;;;;;;5055319;28;21275;-71
2021/11/20 10:14:31;;;;;;;50.70;28.95;;;;;;;;;;5015306;28;20084;-71
2021/11/20 10:17:16;;;;;;;52.28;29.63;;;;;;;;;;5056972;28;20056;-71
2021/11/20 10:19:45;;;;;;;52.78;29.45;;;;;;;;;;5051081;28;20076;-72
2021/11/20 10:22:11;;;;;;;51.60;29.48;;;;;;;;;;5049910;28;20048;-72
2021/11/20 10:24:52;;;;;;;54.33;30.05;;;;;;;;;;5052596;28;20048;-71
2021/11/20 10:27:24;;;;;;;52.65;29.17;;;;;;;;;;5049985;28;20516;-71
2021/11/20 10:30:09;;;;;;;47.25;28.38;;;;;;;;;;5057233;28;20498;-72
2021/11/20 10:32:53;;;;;;;54.63;31.67;;;;;;;;;;5049087;28;20057;-71
2021/11/20 10:35:23;;;;;;;45.00;25.83;;;;;;;;;;5031705;28;20055;-72
2021/11/20 10:38:11;;;;;;;43.85;25.40;;;;;;;;;;5042318;28;20139;-71
2021/11/20 10:40:54;;;;;;;46.92;28.33;;;;;;;;;;5037502;28;20639;-71
2021/11/20 10:43:33;;;;;;;46.97;27.77;;;;;;;;;;5045343;28;20055;-71
2021/11/20 10:46:16;;;;;;;51.35;29.23;;;;;;;;;;5054974;28;20052;-71
2021/11/20 10:48:44;;;;;;;47.17;28.23;;;;;;;;;;5024234;28;20146;-71
2021/11/20 10:51:29;;;;;;;47.85;28.05;;;;;;;;;;5049919;28;20044;-71
2021/11/20 10:54:07;;;;;;;43.80;26.23;;;;;;;;;;5046732;28;20053;-72
2021/11/20 10:56:34;;;;;;;;;;;;;;;;;;5056015;28;20063;-71
2021/11/20 10:59:23;;;;;;;44.80;26.02;;;;;;;;;;5059312;28;19928;-72
2021/11/20 11:02:01;;;;;;;46.75;25.85;;;;;;;;;;5058000;28;20053;-72
2021/11/20 11:04:36;;;;;;;40.05;25.13;;;;;;;;;;5050905;28;20053;-72
2021/11/20 11:07:05;;;;;;;43.60;25.27;;;;;;;;;;5051311;28;20160;-71
2021/11/20 11:09:36;;;;;;;42.92;24.83;;;;;;;;;;5059330;28;20053;-72
2021/11/20 11:12:03;;;;;;;45.33;25.25;;;;;;;;;;5047993;28;20052;-72
2021/11/20 11:14:45;;;;;;;40.75;24.08;;;;;;;;;;5041487;28;20140;-71
2021/11/20 11:17:30;;;;;;;41.30;23.90;;;;;;;;;;5045900;28;20045;-71
2021/11/20 11:20:12;;;;;;;43.65;25.42;;;;;;;;;;5052909;28;20041;-72
2021/11/20 11:22:44;;;;;;;41.78;23.80;;;;;;;;;;5048636;28;20048;-72
2021/11/20 11:25:14;;;;;;;46.20;25.55;;;;;;;;;;5059084;28;20049;-72
2021/11/20 11:27:43;;;;;;;47.15;26.75;;;;;;;;;;5056797;28;20049;-72
2021/11/20 11:30:25;;;;;;;50.78;27.35;;;;;;;;;;5051143;28;20047;-72
2021/11/20 11:32:52;;;;;;;47.17;27.35;;;;;;;;;;5054868;28;20391;-72
2021/11/20 11:35:30;;;;;;;48.75;26.90;;;;;;;;;;5051821;28;20048;-71
2021/11/20 11:38:15;;;;;;;47.40;27.95;;;;;;;;;;5059430;28;20052;-72
2021/11/20 11:40:47;;;;;;;49.88;27.52;;;;;;;;;;5051675;28;20116;-71
2021/11/20 11:43:17;;;;;;;51.28;27.77;;;;;;;;;;5059589;28;20055;-71
2021/11/20 11:45:46;;;;;;;49.78;27.40;;;;;;;;;;5046117;28;20219;-71
2021/11/20 11:48:27;;;;;;;44.95;25.88;;;;;;;;;;5056290;28;20493;-71
2021/11/20 11:51:03;;;;;;;48.03;26.50;;;;;;;;;;5047266;28;20092;-71
2021/11/20 11:53:29;;;;;;;47.47;26.05;;;;;;;;;;5057944;28;20056;-71
2021/11/20 11:55:58;;;;;;;53.80;28.02;;;;;;;;;;5057532;28;20048;-72
2021/11/20 11:58:25;;;;;;;50.83;27.73;;;;;;;;;;5045419;28;20056;-71
2021/11/20 12:01:08;;;;;;;49.60;27.40;;;;;;;;;;5052194;28;20044;-72
2021/11/20 12:03:37;;;;;;;47.75;26.77;;;;;;;;;;5049190;28;20052;-71
2021/11/20 12:06:11;;;;;;;47.38;25.05;;;;;;;;;;5057732;28;20117;-71
2021/11/20 12:08:39;;;;;;;47.92;27.98;;;;;;;;;;5048027;28;20045;-71
2021/11/20 12:11:05;;;;;;;;;;;;;;;;;;5057221;28;20131;-71
2021/11/20 12:13:44;;;;;;;50.75;26.17;;;;;;;;;;5024944;28;19931;-71
2021/11/20 12:16:22;;;;;;;43.40;25.23;;;;;;;;;;5054023;28;20555;-71
2021/11/20 12:19:01;;;;;;;42.65;24.92;;;;;;;;;;5057402;28;20052;-71
2021/11/20 12:21:30;;;;;;;40.38;23.65;;;;;;;;;;5052481;28;20520;-71
2021/11/20 12:23:58;;;;;;;39.10;23.60;;;;;;;;;;5059206;28;20493;-71
2021/11/20 12:26:25;;;;;;;42.47;24.65;;;;;;;;;;5045004;28;20549;-71
2021/11/20 12:28:51;;;;;;;43.22;24.15;;;;;;;;;;5050771;28;20060;-71
2021/11/20 12:31:23;;;;;;;45.22;24.73;;;;;;;;;;5048315;28;20071;-71
2021/11/20 12:34:13;;;;;;;41.42;24.10;;;;;;;;;;5035751;28;20053;-71
2021/11/20 12:36:43;;;;;;;38.92;22.42;;;;;;;;;;5047800;28;20159;-71
2021/11/20 12:39:10;;;;;;;40.17;20.73;;;;;;;;;;5055859;28;20079;-72
2021/11/20 12:41:49;;;;;;;42.67;23.73;;;;;;;;;;5049477;28;20052;-73
2021/11/20 12:44:15;;;;;;;39.92;21.80;;;;;;;;;;5048807;28;20393;-71
2021/11/20 12:46:44;;;;;;;39.28;21.25;;;;;;;;;;5056940;28;20076;-71
2021/11/20 12:49:30;;;;;;;38.05;21.08;;;;;;;;;;5050682;28;20060;-72
2021/11/20 12:51:59;;;;;;;37.53;21.42;;;;;;;;;;5052992;28;20078;-71
2021/11/20 12:54:26;;;;;;;40.20;22.67;;;;;;;;;;5042802;28;20048;-71
2021/11/20 12:57:12;;;;;;;37.75;22.08;;;;;;;;;;5050972;28;20489;-71
2021/11/20 12:59:42;;;;;;;37.08;21.02;;;;;;;;;;5049368;28;20095;-72
2021/11/20 13:02:44;;;;;;;36.30;20.67;;;;;;;;;;5058036;28;20535;-71
2021/11/20 13:05:37;;;;;;;35.58;18.88;;;;;;;;;;5048172;28;20414;-71
2021/11/20 13:08:05;;;;;;;34.00;20.10;;;;;;;;;;5048003;28;20239;-73
2021/11/20 13:10:34;;;;;;;34.92;19.88;;;;;;;;;;5044651;28;20052;-71
2021/11/20 13:13:10;;;;;;;30.83;17.83;;;;;;;;;;5054513;28;20049;-71
2021/11/20 13:15:55;;;;;;;31.85;17.52;;;;;;;;;;5055677;28;20052;-71
2021/11/20 13:18:22;;;;;;;24.55;14.43;;;;;;;;;;5052362;28;20259;-71
2021/11/20 13:20:51;;;;;;;29.98;17.67;;;;;;;;;;5054839;28;20489;-71
2021/11/20 13:23:19;;;;;;;32.03;18.55;;;;;;;;;;5044508;28;20055;-71
2021/11/20 13:25:55;;;;;;;32.15;17.65;;;;;;;;;;5053153;28;20052;-72
2021/11/20 13:28:22;;;;;;;31.65;18.98;;;;;;;;;;5030892;28;20075;-71
2021/11/20 13:30:48;;;;;;;30.67;17.35;;;;;;;;;;5038450;28;20524;-72
2021/11/20 13:33:14;;;;;;;28.45;16.35;;;;;;;;;;5048330;28;20059;-71
2021/11/20 13:35:42;;;;;;;26.17;14.68;;;;;;;;;;5052346;28;20373;-71
2021/11/20 13:38:10;;;;;;;31.38;15.68;;;;;;;;;;5051236;28;20044;-72
2021/11/20 13:40:44;;;;;;;27.23;16.02;;;;;;;;;;5048939;28;20048;-71
2021/11/20 13:43:12;;;;;;;30.17;16.73;;;;;;;;;;5055285;28;20067;-71
2021/11/20 13:45:39;;;;;;;25.63;14.95;;;;;;;;;;5048015;28;20525;-71
2021/11/20 13:48:05;;;;;;;29.42;15.88;;;;;;;;;;5056441;28;20055;-71
2021/11/20 13:50:36;;;;;;;29.45;15.82;;;;;;;;;;5041623;28;20431;-71
2021/11/20 13:53:03;;;;;;;29.05;16.10;;;;;;;;;;5051069;28;20765;-71
2021/11/20 13:55:29;;;;;;;30.85;16.40;;;;;;;;;;5056167;28;20398;-72
2021/11/20 13:57:56;;;;;;;29.08;16.17;;;;;;;;;;5047481;28;20055;-72
2021/11/20 14:00:24;;;;;;;28.35;17.13;;;;;;;;;;5056303;28;20154;-74
2021/11/20 14:02:52;;;;;;;31.45;18.13;;;;;;;;;;5047407;28;20059;-72
2021/11/20 14:05:19;;;;;;;33.75;18.55;;;;;;;;;;5048364;28;20602;-74
2021/11/20 14:07:49;;;;;;;31.05;18.20;;;;;;;;;;5046736;28;20053;-72
2021/11/20 14:10:31;;;;;;;28.88;17.33;;;;;;;;;;5056145;28;20055;-70
2021/11/20 14:15:44;;;;;;;26.88;17.27;;;;;;;;;;5055770;28;20749;-71
2021/11/20 14:18:10;;;;;;;30.92;18.00;;;;;;;;;;5052669;28;20056;-70
2021/11/20 14:20:41;;;;;;;31.67;18.15;;;;;;;;;;5042972;28;20190;-73
2021/11/20 14:23:12;;;;;;;29.08;18.23;;;;;;;;;;5054990;28;20050;-71
2021/11/20 14:25:39;;;;;;;32.42;18.65;;;;;;;;;;5046846;28;20052;-71
2021/11/20 14:28:05;;;;;;;31.85;19.52;;;;;;;;;;5055233;28;20145;-71
2021/11/20 14:30:40;;;;;;;31.17;18.75;;;;;;;;;;5048318;28;20056;-71
2021/11/20 14:33:17;;;;;;;32.45;19.38;;;;;;;;;;5031755;28;20053;-71
2021/11/20 14:35:55;;;;;;;32.63;19.15;;;;;;;;;;5050014;28;20098;-71
2021/11/20 14:38:22;;;;;;;;;;;;;;;;;;5060026;28;20052;-71
2021/11/20 14:40:50;;;;;;;34.97;19.63;;;;;;;;;;5059474;28;19925;-71